createdAt,value
2023-02-11T00:01:16.797Z,7.03
2023-02-11T00:03:43.909Z,5.88
2023-02-11T00:06:11.950Z,6.47
2023-02-11T00:08:39.987Z,6.35
2023-02-11T00:11:07.855Z,6.53
2023-02-11T00:13:35.125Z,7.55
2023-02-11T00:16:10.357Z,6.93
2023-02-11T00:18:38.657Z,6.88
2023-02-11T00:21:10.477Z,6.43
2023-02-11T00:23:37.895Z,6.88
2023-02-11T00:26:11.986Z,6.97
2023-02-11T00:31:11.830Z,6.40
2023-02-11T00:33:39.286Z,7.07
2023-02-11T00:36:09.670Z,7.70
2023-02-11T00:38:36.893Z,7.18
2023-02-11T00:41:04.248Z,7.47
2023-02-11T00:43:31.770Z,7.10
2023-02-11T00:45:59.206Z,6.85
2023-02-11T00:48:26.215Z,6.75
2023-02-11T00:50:53.208Z,6.88
2023-02-11T00:53:20.205Z,6.32
2023-02-11T00:55:47.332Z,7.20
2023-02-11T00:58:14.665Z,6.38
2023-02-11T01:00:43.059Z,6.93
2023-02-11T01:03:10.393Z,6.32
2023-02-11T01:05:37.410Z,8.75
2023-02-11T01:08:04.525Z,7.25
2023-02-11T01:10:31.958Z,6.57
2023-02-11T01:12:59.012Z,6.57
2023-02-11T01:15:26.686Z,6.40
2023-02-11T01:17:53.973Z,6.75
2023-02-11T01:20:24.670Z,6.97
2023-02-11T01:22:51.628Z,6.72
2023-02-11T01:25:18.825Z,7.25
2023-02-11T01:27:45.854Z,6.55
2023-02-11T01:30:14.188Z,7.30
2023-02-11T01:32:41.574Z,7.35
2023-02-11T01:35:09.090Z,7.47
2023-02-11T01:37:36.722Z,7.20
2023-02-11T01:40:07.732Z,8.02
2023-02-11T01:42:35.010Z,7.15
2023-02-11T01:45:22.618Z,6.78
2023-02-11T01:47:49.530Z,7.50
2023-02-11T01:50:19.082Z,7.43
2023-02-11T01:52:48.107Z,6.88
2023-02-11T01:55:35.186Z,8.23
2023-02-11T01:58:05.625Z,8.13
2023-02-11T02:00:37.325Z,7.43
2023-02-11T02:03:15.493Z,7.13
2023-02-11T02:06:12.569Z,7.13
2023-02-11T02:09:08.911Z,7.07
2023-02-11T02:11:37.289Z,6.65
2023-02-11T02:14:04.484Z,7.50
2023-02-11T02:16:36.053Z,7.63
2023-02-11T02:19:36.473Z,7.82
2023-02-11T02:22:10.662Z,8.05
2023-02-11T02:24:56.834Z,6.78
2023-02-11T02:27:36.248Z,7.13
2023-02-11T02:30:40.143Z,7.63
2023-02-11T02:33:23.279Z,7.10
2023-02-11T02:36:15.120Z,6.57
2023-02-11T02:39:01.026Z,7.63
2023-02-11T02:43:59.892Z,5.82
2023-02-11T02:46:31.543Z,6.80
2023-02-11T02:48:59.434Z,6.05
2023-02-11T02:51:32.278Z,5.90
2023-02-11T02:54:14.296Z,6.15
2023-02-11T02:57:19.379Z,7.35
2023-02-11T03:00:05.490Z,6.65
2023-02-11T03:02:50.939Z,6.50
2023-02-11T03:05:43.815Z,7.10
2023-02-11T03:08:22.383Z,7.30
2023-02-11T03:10:52.807Z,7.82
2023-02-11T03:13:26.296Z,7.03
2023-02-11T03:15:57.603Z,7.88
2023-02-11T03:18:29.183Z,7.82
2023-02-11T03:20:57.513Z,8.25
2023-02-11T03:23:30.974Z,7.72
2023-02-11T03:26:27.596Z,7.40
2023-02-11T03:29:03.886Z,8.85
2023-02-11T03:31:51.231Z,8.63
2023-02-11T03:34:35.688Z,7.32
2023-02-11T03:37:25.810Z,7.15
2023-02-11T03:40:01.212Z,7.50
2023-02-11T03:45:11.985Z,7.55
2023-02-11T03:47:47.064Z,7.95
2023-02-11T03:50:16.671Z,8.40
2023-02-11T03:52:45.485Z,6.65
2023-02-11T03:55:20.097Z,7.13
2023-02-11T03:57:47.927Z,8.23
2023-02-11T04:00:15.565Z,7.55
2023-02-11T04:02:43.855Z,9.70
2023-02-11T04:05:15.005Z,8.63
2023-02-11T04:07:42.357Z,8.27
2023-02-11T04:10:09.828Z,8.80
2023-02-11T04:12:36.894Z,9.70
2023-02-11T04:15:04.290Z,9.25
2023-02-11T04:17:31.431Z,11.48
2023-02-11T04:19:58.398Z,10.63
2023-02-11T04:22:25.458Z,11.20
2023-02-11T04:24:52.460Z,11.93
2023-02-11T04:27:19.740Z,12.13
2023-02-11T04:29:46.695Z,13.20
2023-02-11T04:32:14.003Z,15.05
2023-02-11T04:34:40.960Z,14.18
2023-02-11T04:37:08.589Z,15.88
2023-02-11T04:39:36.062Z,15.63
2023-02-11T04:42:03.168Z,15.18
2023-02-11T04:44:30.189Z,14.90
2023-02-11T04:46:57.731Z,14.88
2023-02-11T04:49:24.987Z,16.42
2023-02-11T04:51:52.087Z,17.27
2023-02-11T04:54:19.171Z,16.83
2023-02-11T04:56:46.518Z,17.98
2023-02-11T04:59:13.634Z,18.48
2023-02-11T05:01:41.528Z,17.98
2023-02-11T05:04:08.675Z,18.02
2023-02-11T05:06:35.697Z,18.92
2023-02-11T05:09:02.809Z,17.98
2023-02-11T05:11:29.913Z,19.27
2023-02-11T05:13:56.872Z,19.70
2023-02-11T05:16:23.999Z,19.20
2023-02-11T05:18:52.630Z,20.10
2023-02-11T05:21:19.787Z,19.98
2023-02-11T05:23:48.488Z,19.92
2023-02-11T05:26:16.540Z,17.85
2023-02-11T05:28:44.603Z,18.65
2023-02-11T05:31:15.041Z,19.13
2023-02-11T05:33:42.635Z,18.42
2023-02-11T05:36:11.910Z,19.23
2023-02-11T05:38:39.678Z,18.77
2023-02-11T05:41:07.499Z,19.20
2023-02-11T05:43:37.671Z,18.60
2023-02-11T05:46:05.668Z,19.30
2023-02-11T05:48:32.855Z,19.02
2023-02-11T05:51:00.136Z,19.08
2023-02-11T05:53:27.144Z,20.00
2023-02-11T05:55:54.329Z,20.23
2023-02-11T05:58:21.226Z,20.60
2023-02-11T06:00:48.271Z,20.65
2023-02-11T06:03:15.347Z,21.48
2023-02-11T06:05:44.527Z,22.33
2023-02-11T06:08:12.104Z,22.50
2023-02-11T06:10:39.291Z,23.15
2023-02-11T06:13:06.575Z,22.27
2023-02-11T06:15:33.605Z,22.48
2023-02-11T06:18:00.486Z,22.05
2023-02-11T06:20:27.984Z,23.67
2023-02-11T06:22:55.001Z,23.25
2023-02-11T06:25:22.091Z,23.00
2023-02-11T06:27:48.972Z,25.83
2023-02-11T06:30:16.329Z,25.10
2023-02-11T06:32:45.502Z,24.85
2023-02-11T06:35:14.433Z,25.23
2023-02-11T06:37:41.798Z,25.70
2023-02-11T06:40:09.536Z,25.85
2023-02-11T06:42:38.825Z,26.50
2023-02-11T06:45:06.419Z,29.08
2023-02-11T06:47:33.406Z,28.02
2023-02-11T06:50:00.579Z,29.48
2023-02-11T06:52:27.636Z,29.65
2023-02-11T06:54:54.942Z,31.17
2023-02-11T06:57:21.826Z,30.10
2023-02-11T06:59:48.942Z,31.10
2023-02-11T07:02:16.092Z,32.17
2023-02-11T07:04:44.401Z,32.13
2023-02-11T07:07:12.317Z,32.25
2023-02-11T07:09:39.327Z,33.33
2023-02-11T07:12:06.542Z,33.47
2023-02-11T07:14:33.492Z,33.80
2023-02-11T07:17:00.501Z,33.85
2023-02-11T07:19:27.475Z,31.83
2023-02-11T07:21:55.277Z,35.70
2023-02-11T07:24:23.437Z,32.55
2023-02-11T07:26:50.552Z,32.47
2023-02-11T07:29:17.489Z,33.22
2023-02-11T07:31:44.598Z,33.60
2023-02-11T07:34:12.164Z,34.25
2023-02-11T07:36:40.249Z,35.22
2023-02-11T07:39:07.307Z,35.55
2023-02-11T07:41:37.779Z,34.45
2023-02-11T07:44:05.847Z,34.17
2023-02-11T07:46:34.749Z,35.70
2023-02-11T07:49:01.914Z,37.00
2023-02-11T07:51:30.253Z,35.20
2023-02-11T07:53:59.351Z,37.28
2023-02-11T07:56:26.788Z,36.13
2023-02-11T07:58:55.185Z,35.60
2023-02-11T08:01:26.176Z,34.38
2023-02-11T08:03:53.916Z,34.03
2023-02-11T08:06:23.154Z,33.83
2023-02-11T08:08:50.561Z,33.33
2023-02-11T08:11:24.014Z,33.63
2023-02-11T08:13:51.570Z,33.55
2023-02-11T08:16:25.041Z,33.28
2023-02-11T08:18:54.235Z,32.20
2023-02-11T08:21:21.459Z,32.13
2023-02-11T08:23:49.892Z,31.67
2023-02-11T08:26:23.512Z,29.10
2023-02-11T08:28:53.140Z,30.70
2023-02-11T08:31:23.091Z,29.67
2023-02-11T08:33:50.895Z,29.15
2023-02-11T08:36:21.453Z,27.92
2023-02-11T08:38:49.222Z,28.83
2023-02-11T08:41:20.105Z,27.10
2023-02-11T08:43:47.255Z,27.70
2023-02-11T08:46:17.030Z,25.45
2023-02-11T08:48:45.470Z,27.58
2023-02-11T08:51:17.523Z,25.58
2023-02-11T08:53:45.521Z,25.35
2023-02-11T08:56:14.304Z,26.42
2023-02-11T08:58:41.907Z,22.98
2023-02-11T09:01:22.652Z,23.67
2023-02-11T09:03:50.550Z,23.13
2023-02-11T09:06:18.836Z,22.90
2023-02-11T09:08:51.658Z,22.50
2023-02-11T09:11:26.824Z,22.02
2023-02-11T09:13:54.617Z,21.98
2023-02-11T09:16:30.387Z,22.38
2023-02-11T09:19:00.164Z,19.92
2023-02-11T09:21:28.350Z,19.63
2023-02-11T09:23:56.361Z,19.13
2023-02-11T09:26:28.311Z,19.42
2023-02-11T09:28:57.462Z,20.40
2023-02-11T09:31:27.376Z,20.25
2023-02-11T09:33:58.168Z,18.38
2023-02-11T09:36:30.695Z,18.63
2023-02-11T09:39:00.356Z,18.10
2023-02-11T09:41:49.407Z,18.73
2023-02-11T09:44:28.546Z,17.38
2023-02-11T09:47:15.586Z,19.10
2023-02-11T09:49:57.924Z,17.13
2023-02-11T09:52:44.605Z,17.77
2023-02-11T09:55:29.512Z,16.60
2023-02-11T09:57:58.138Z,17.38
2023-02-11T10:00:49.894Z,14.93
2023-02-11T10:03:55.437Z,16.20
2023-02-11T10:06:41.079Z,16.05
2023-02-11T10:09:32.370Z,15.10
2023-02-11T10:12:22.134Z,14.82
2023-02-11T10:15:13.084Z,16.25
2023-02-11T10:18:18.220Z,16.33
2023-02-11T10:21:06.938Z,15.20
2023-02-11T10:23:43.101Z,15.73
2023-02-11T10:26:17.007Z,15.43
2023-02-11T10:28:51.119Z,14.82
2023-02-11T10:31:26.015Z,14.20
2023-02-11T10:34:14.713Z,13.95
2023-02-11T10:36:44.725Z,14.65
2023-02-11T10:39:13.707Z,14.23
2023-02-11T10:42:05.355Z,13.05
2023-02-11T10:44:36.420Z,14.15
2023-02-11T10:47:18.203Z,13.70
2023-02-11T10:49:46.280Z,13.70
2023-02-11T10:52:28.486Z,13.93
2023-02-11T10:54:58.594Z,13.73
2023-02-11T10:57:31.168Z,13.48
2023-02-11T11:00:02.227Z,13.10
2023-02-11T11:02:35.170Z,12.70
2023-02-11T11:05:27.073Z,12.40
2023-02-11T11:08:08.480Z,13.48
2023-02-11T11:10:44.077Z,13.18
2023-02-11T11:13:29.227Z,12.35
2023-02-11T11:16:08.424Z,11.63
2023-02-11T11:18:36.042Z,12.30
2023-02-11T11:21:13.168Z,11.80
2023-02-11T11:23:41.947Z,12.20
2023-02-11T11:26:15.007Z,12.65
2023-02-11T11:29:20.284Z,11.50
2023-02-11T11:31:52.604Z,12.48
2023-02-11T11:34:27.169Z,13.90
2023-02-11T11:36:56.590Z,12.40
2023-02-11T11:39:33.486Z,13.25
2023-02-11T11:42:26.490Z,12.98
2023-02-11T11:45:01.211Z,13.10
2023-02-11T11:47:42.438Z,13.82
2023-02-11T11:50:21.257Z,14.35
2023-02-11T11:53:01.845Z,13.93
2023-02-11T11:55:38.978Z,13.90
2023-02-11T11:58:10.633Z,12.57
2023-02-11T12:01:02.093Z,12.48
2023-02-11T12:03:31.906Z,13.38
2023-02-11T12:06:37.852Z,13.23
2023-02-11T12:09:28.478Z,12.82
2023-02-11T12:12:46.979Z,13.15
2023-02-11T12:15:32.311Z,13.10
2023-02-11T12:18:21.012Z,14.77
2023-02-11T12:21:10.691Z,13.80
2023-02-11T12:24:19.116Z,13.20
2023-02-11T12:27:13.514Z,14.40
2023-02-11T12:29:56.102Z,13.27
2023-02-11T12:32:57.617Z,12.95
2023-02-11T12:36:00.412Z,13.88
2023-02-11T12:38:52.306Z,13.65
2023-02-11T12:41:55.748Z,14.10
2023-02-11T12:44:41.344Z,13.77
2023-02-11T12:47:11.594Z,13.98
2023-02-11T12:50:17.355Z,13.23
2023-02-11T12:53:29.809Z,13.90
2023-02-11T12:56:10.675Z,13.07
2023-02-11T12:58:45.546Z,12.18
2023-02-11T13:01:25.338Z,12.68
2023-02-11T13:04:18.054Z,13.02
2023-02-11T13:06:50.616Z,12.27
2023-02-11T13:09:24.225Z,12.50
2023-02-11T13:11:58.421Z,12.55
2023-02-11T13:14:35.658Z,13.07
2023-02-11T13:17:11.568Z,13.13
2023-02-11T13:19:53.146Z,12.90
2023-02-11T13:22:28.529Z,12.05
2023-02-11T13:25:01.582Z,13.48
2023-02-11T13:27:59.441Z,12.55
2023-02-11T13:30:33.869Z,13.48
2023-02-11T13:33:01.165Z,11.63
2023-02-11T13:35:31.550Z,12.40
2023-02-11T13:38:00.382Z,13.18
2023-02-11T13:40:40.348Z,12.13
2023-02-11T13:43:23.782Z,12.63
2023-02-11T13:45:52.542Z,12.80
2023-02-11T13:48:27.972Z,13.13
2023-02-11T13:53:24.436Z,12.85
2023-02-11T13:55:54.512Z,12.52
2023-02-11T13:58:27.603Z,11.60
2023-02-11T14:00:55.432Z,11.70
2023-02-11T14:03:48.193Z,12.05
2023-02-11T14:06:40.428Z,12.07
2023-02-11T14:09:30.375Z,11.82
2023-02-11T14:12:30.290Z,12.23
2023-02-11T14:15:03.749Z,11.85
2023-02-11T14:17:34.499Z,13.13
2023-02-11T14:20:05.303Z,12.40
2023-02-11T14:22:47.989Z,11.88
2023-02-11T14:25:29.237Z,11.93
2023-02-11T14:28:10.254Z,12.27
2023-02-11T14:31:07.576Z,11.93
2023-02-11T14:33:50.049Z,10.98
2023-02-11T14:36:49.127Z,11.80
2023-02-11T14:39:41.938Z,10.90
2023-02-11T14:42:19.222Z,12.93
2023-02-11T14:44:49.155Z,12.40
2023-02-11T14:47:21.056Z,11.05
2023-02-11T14:49:49.771Z,12.35
2023-02-11T14:52:25.863Z,12.60
2023-02-11T14:55:05.129Z,12.43
2023-02-11T14:57:33.554Z,11.75
2023-02-11T15:00:03.832Z,12.23
2023-02-11T15:02:36.866Z,11.52
2023-02-11T15:05:20.741Z,11.70
2023-02-11T15:07:54.929Z,12.02
2023-02-11T15:10:44.196Z,11.60
2023-02-11T15:13:20.803Z,12.75
2023-02-11T15:15:51.057Z,11.73
2023-02-11T15:18:23.192Z,12.77
2023-02-11T15:20:51.377Z,12.18
2023-02-11T15:23:25.023Z,11.95
2023-02-11T15:25:56.003Z,11.95
2023-02-11T15:28:30.639Z,11.45
2023-02-11T15:31:20.779Z,12.17
2023-02-11T15:33:47.929Z,11.43
2023-02-11T15:36:16.241Z,11.98
2023-02-11T15:38:43.732Z,11.10
2023-02-11T15:41:37.733Z,12.15
2023-02-11T15:44:05.040Z,11.82
2023-02-11T15:46:41.778Z,12.10
2023-02-11T15:49:19.241Z,12.43
2023-02-11T15:51:47.514Z,11.13
2023-02-11T15:54:23.886Z,12.25
2023-02-11T15:56:59.700Z,11.75
2023-02-11T15:59:31.315Z,11.73
2023-02-11T16:02:05.581Z,11.63
2023-02-11T16:04:32.854Z,11.77
2023-02-11T16:06:59.956Z,12.07
2023-02-11T16:09:34.146Z,11.05
2023-02-11T16:12:19.518Z,10.55
2023-02-11T16:14:47.107Z,11.02
2023-02-11T16:17:26.135Z,12.73
2023-02-11T16:19:54.404Z,11.07
2023-02-11T16:22:30.323Z,11.63
2023-02-11T16:24:59.564Z,11.38
2023-02-11T16:27:40.486Z,11.38
2023-02-11T16:30:23.967Z,12.63
2023-02-11T16:32:53.706Z,13.45
2023-02-11T16:35:21.221Z,12.95
2023-02-11T16:37:48.366Z,12.70
2023-02-11T16:40:17.451Z,13.57
2023-02-11T16:42:44.474Z,12.43
2023-02-11T16:45:12.185Z,12.60
2023-02-11T16:47:42.661Z,11.75
2023-02-11T16:50:19.151Z,13.00
2023-02-11T16:52:47.594Z,11.63
2023-02-11T16:55:15.281Z,12.70
2023-02-11T16:57:42.510Z,10.75
2023-02-11T17:00:11.156Z,12.60
2023-02-11T17:02:38.890Z,11.65
2023-02-11T17:05:08.808Z,12.32
2023-02-11T17:07:35.860Z,12.23
2023-02-11T17:10:03.173Z,12.13
2023-02-11T17:12:30.320Z,12.45
2023-02-11T17:14:57.517Z,12.35
2023-02-11T17:17:24.497Z,12.23
2023-02-11T17:19:53.154Z,12.98
2023-02-11T17:22:20.257Z,12.45
2023-02-11T17:24:47.481Z,11.90
2023-02-11T17:27:15.613Z,11.88
2023-02-11T17:29:42.511Z,12.75
2023-02-11T17:32:10.268Z,12.93
2023-02-11T17:34:37.234Z,12.45
2023-02-11T17:37:09.349Z,12.90
2023-02-11T17:39:37.697Z,12.20
2023-02-11T17:42:06.119Z,12.98
2023-02-11T17:44:33.898Z,12.48
2023-02-11T17:47:00.911Z,12.75
2023-02-11T17:49:27.983Z,11.98
2023-02-11T17:51:55.130Z,12.65
2023-02-11T17:54:22.324Z,13.65
2023-02-11T17:56:50.971Z,13.25
2023-02-11T17:59:18.353Z,13.95
2023-02-11T18:01:45.624Z,12.77
2023-02-11T18:04:15.747Z,14.43
2023-02-11T18:06:43.506Z,12.05
2023-02-11T18:09:10.920Z,12.27
2023-02-11T18:11:39.084Z,13.85
2023-02-11T18:14:08.183Z,14.20
2023-02-11T18:16:38.744Z,13.70
2023-02-11T18:19:07.725Z,13.50
2023-02-11T18:21:34.987Z,14.65
2023-02-11T18:24:06.573Z,14.52
2023-02-11T18:26:34.873Z,15.15
2023-02-11T18:29:02.089Z,15.15
2023-02-11T18:31:29.266Z,13.68
2023-02-11T18:33:56.248Z,14.85
2023-02-11T18:36:23.559Z,15.07
2023-02-11T18:38:52.723Z,14.70
2023-02-11T18:41:20.622Z,14.70
2023-02-11T18:43:47.969Z,14.40
2023-02-11T18:46:15.857Z,14.60
2023-02-11T18:48:44.918Z,14.23
2023-02-11T18:51:16.042Z,15.48
2023-02-11T18:53:43.498Z,16.77
2023-02-11T18:56:16.849Z,16.35
2023-02-11T18:58:45.338Z,18.20
2023-02-11T19:01:18.341Z,16.73
2023-02-11T19:03:45.743Z,17.65
2023-02-11T19:06:21.848Z,17.50
2023-02-11T19:08:48.917Z,16.75
2023-02-11T19:11:18.050Z,19.50
2023-02-11T19:13:48.083Z,19.13
2023-02-11T19:16:16.967Z,18.65
2023-02-11T19:18:43.859Z,18.33
2023-02-11T19:21:12.606Z,17.85
2023-02-11T19:23:40.048Z,19.70
2023-02-11T19:26:07.344Z,16.77
2023-02-11T19:28:37.536Z,19.33
2023-02-11T19:31:10.575Z,19.95
2023-02-11T19:33:37.645Z,18.67
2023-02-11T19:36:09.809Z,18.65
2023-02-11T19:38:38.315Z,19.90
2023-02-11T19:41:05.402Z,19.17
2023-02-11T19:43:32.448Z,19.77
2023-02-11T19:46:02.076Z,21.75
2023-02-11T19:48:29.182Z,20.17
2023-02-11T19:50:56.704Z,20.40
2023-02-11T19:53:24.038Z,20.00
2023-02-11T19:55:51.407Z,19.42
2023-02-11T19:58:18.516Z,19.65
2023-02-11T20:00:45.499Z,20.15
2023-02-11T20:03:12.573Z,19.55
2023-02-11T20:05:42.666Z,20.92
2023-02-11T20:08:09.925Z,21.70
2023-02-11T20:10:37.082Z,21.17
2023-02-11T20:13:04.069Z,22.88
2023-02-11T20:15:31.364Z,23.33
2023-02-11T20:17:58.599Z,22.42
2023-02-11T20:20:25.525Z,22.08
2023-02-11T20:22:52.841Z,21.60
2023-02-11T20:25:19.827Z,22.98
2023-02-11T20:27:46.895Z,21.35
2023-02-11T20:30:14.589Z,22.13
2023-02-11T20:32:41.665Z,21.77
2023-02-11T20:35:09.319Z,20.95
2023-02-11T20:37:36.927Z,21.75
2023-02-11T20:40:04.017Z,21.85
2023-02-11T20:42:31.099Z,22.45
2023-02-11T20:44:58.323Z,21.45
2023-02-11T20:47:25.277Z,23.38
2023-02-11T20:49:55.064Z,24.13
2023-02-11T20:52:22.196Z,21.15
2023-02-11T20:54:49.249Z,22.75
2023-02-11T20:57:16.293Z,23.50
2023-02-11T20:59:43.188Z,24.38
2023-02-11T21:02:10.371Z,22.77
2023-02-11T21:04:39.072Z,22.80
2023-02-11T21:07:06.439Z,23.50
2023-02-11T21:09:34.031Z,22.55
2023-02-11T21:12:01.961Z,23.25
2023-02-11T21:14:29.907Z,23.85
2023-02-11T21:16:57.702Z,22.50
2023-02-11T21:19:24.882Z,22.17
2023-02-11T21:21:52.009Z,21.95
2023-02-11T21:24:19.026Z,22.05
2023-02-11T21:26:46.050Z,23.25
2023-02-11T21:29:13.297Z,22.60
2023-02-11T21:31:40.621Z,22.98
2023-02-11T21:34:08.195Z,22.00
2023-02-11T21:36:35.217Z,21.67
2023-02-11T21:39:03.845Z,23.73
2023-02-11T21:41:31.324Z,24.17
2023-02-11T21:43:58.514Z,22.77
2023-02-11T21:46:27.427Z,21.42
2023-02-11T21:48:54.476Z,24.65
2023-02-11T21:51:25.003Z,23.70
2023-02-11T21:53:57.097Z,22.38
2023-02-11T21:56:26.474Z,24.90
2023-02-11T21:58:55.158Z,24.85
2023-02-11T22:01:25.160Z,26.80
2023-02-11T22:03:52.717Z,27.92
2023-02-11T22:06:28.151Z,26.45
2023-02-11T22:11:23.063Z,28.75
2023-02-11T22:13:55.435Z,28.40
2023-02-11T22:16:23.177Z,28.17
2023-02-11T22:18:50.430Z,28.83
2023-02-11T22:21:20.515Z,26.88
2023-02-11T22:23:47.729Z,28.58
2023-02-11T22:26:18.049Z,26.92
2023-02-11T22:28:46.071Z,27.50
2023-02-11T22:31:15.835Z,25.95
2023-02-11T22:33:44.283Z,26.15
2023-02-11T22:36:16.777Z,27.02
2023-02-11T22:38:43.962Z,25.08
2023-02-11T22:41:12.280Z,24.45
2023-02-11T22:43:40.044Z,23.95
2023-02-11T22:46:07.916Z,23.63
2023-02-11T22:48:36.107Z,25.55
2023-02-11T22:51:29.902Z,47.97
2023-02-11T22:54:00.336Z,63.70
2023-02-11T22:56:28.772Z,49.33
2023-02-11T22:59:00.701Z,58.28
2023-02-11T23:01:28.791Z,37.80
2023-02-11T23:03:56.483Z,31.52
2023-02-11T23:06:23.584Z,29.05
2023-02-11T23:08:51.935Z,27.95
2023-02-11T23:11:21.959Z,27.00
2023-02-11T23:13:51.148Z,26.73
2023-02-11T23:16:22.163Z,25.60
2023-02-11T23:18:50.484Z,25.45
2023-02-11T23:21:23.146Z,26.20
2023-02-11T23:23:55.719Z,25.33
2023-02-11T23:26:22.694Z,27.98
2023-02-11T23:28:50.221Z,27.05
2023-02-11T23:31:26.146Z,25.92
2023-02-11T23:33:53.932Z,28.55
2023-02-11T23:36:22.016Z,31.15
2023-02-11T23:38:49.672Z,29.00
2023-02-11T23:41:17.703Z,28.17
2023-02-11T23:43:48.537Z,28.52
2023-02-11T23:46:15.833Z,31.45
2023-02-11T23:48:43.409Z,28.45
2023-02-11T23:51:10.682Z,27.27
2023-02-11T23:53:39.207Z,26.77
2023-02-11T23:56:11.722Z,30.85
2023-02-11T23:58:39.272Z,29.35
